createdAt,value
2023-05-24T00:19:58.509Z,864.00
2023-05-24T00:20:58.461Z,866.00
2023-05-24T00:21:58.446Z,868.00
2023-05-24T00:22:58.444Z,872.00
2023-05-24T00:23:58.430Z,875.00
2023-05-24T00:24:58.418Z,875.00
2023-05-24T00:25:58.414Z,878.00
2023-05-24T00:26:58.414Z,877.00
2023-05-24T00:27:58.407Z,876.00
2023-05-24T00:28:58.418Z,876.00
2023-05-24T00:29:58.395Z,878.00
2023-05-24T00:30:58.385Z,876.00
2023-05-24T00:31:58.432Z,877.00
2023-05-24T00:32:58.409Z,877.00
2023-05-24T00:33:58.701Z,877.00
2023-05-24T00:34:58.347Z,877.00
2023-05-24T00:35:58.380Z,876.00
2023-05-24T00:36:58.346Z,876.00
2023-05-24T00:37:58.329Z,876.00
2023-05-24T00:38:58.327Z,877.00
2023-05-24T00:39:58.337Z,877.00
2023-05-24T00:40:58.321Z,876.00
2023-05-24T00:41:58.303Z,877.00
2023-05-24T00:42:58.322Z,875.00
2023-05-24T00:43:58.321Z,875.00
2023-05-24T00:44:58.298Z,876.00
2023-05-24T00:45:58.290Z,876.00
2023-05-24T00:46:58.269Z,873.00
2023-05-24T00:47:58.373Z,869.00
2023-05-24T00:48:58.262Z,869.00
2023-05-24T00:49:58.258Z,872.00
2023-05-24T00:50:58.237Z,869.00
2023-05-24T00:51:58.248Z,865.00
2023-05-24T00:52:58.253Z,865.00
2023-05-24T00:53:58.220Z,864.00
2023-05-24T00:54:58.227Z,866.00
2023-05-24T00:55:58.212Z,867.00
2023-05-24T00:56:58.211Z,865.00
2023-05-24T00:57:58.202Z,864.00
2023-05-24T00:58:58.186Z,864.00
2023-05-24T00:59:58.194Z,865.00
2023-05-24T01:00:58.169Z,867.00
2023-05-24T01:01:58.231Z,868.00
2023-05-24T01:02:58.263Z,865.00
2023-05-24T01:03:58.218Z,865.00
2023-05-24T01:04:58.202Z,866.00
2023-05-24T01:05:58.162Z,868.00
2023-05-24T01:06:58.150Z,871.00
2023-05-24T01:07:58.166Z,873.00
2023-05-24T01:08:58.136Z,873.00
2023-05-24T01:09:58.132Z,874.00
2023-05-24T01:10:58.121Z,874.00
2023-05-24T01:11:58.113Z,872.00
2023-05-24T01:12:58.117Z,873.00
2023-05-24T01:13:58.117Z,869.00
2023-05-24T01:14:58.101Z,867.00
2023-05-24T01:15:58.139Z,868.00
2023-05-24T01:16:58.098Z,868.00
2023-05-24T01:17:58.095Z,869.00
2023-05-24T01:18:58.090Z,871.00
2023-05-24T01:19:58.093Z,869.00
2023-05-24T01:20:58.072Z,869.00
2023-05-24T01:21:58.054Z,869.00
2023-05-24T01:22:58.053Z,869.00
2023-05-24T01:23:58.038Z,868.00
2023-05-24T01:24:58.039Z,866.00
2023-05-24T01:25:58.024Z,867.00
2023-05-24T01:26:58.025Z,869.00
2023-05-24T01:27:58.019Z,873.00
2023-05-24T01:28:58.005Z,871.00
2023-05-24T01:29:58.005Z,870.00
2023-05-24T01:30:57.998Z,870.00
2023-05-24T01:31:58.002Z,871.00
2023-05-24T01:32:58.027Z,871.00
2023-05-24T01:33:57.974Z,873.00
2023-05-24T01:34:57.976Z,874.00
2023-05-24T01:35:58.028Z,875.00
2023-05-24T01:36:57.958Z,874.00
2023-05-24T01:37:57.946Z,874.00
2023-05-24T01:38:57.949Z,873.00
2023-05-24T01:39:57.948Z,873.00
2023-05-24T01:40:57.953Z,874.00
2023-05-24T01:41:57.936Z,873.00
2023-05-24T01:42:57.917Z,870.00
2023-05-24T01:43:57.908Z,869.00
2023-05-24T01:44:57.895Z,869.00
2023-05-24T01:45:57.934Z,867.00
2023-05-24T01:46:57.905Z,864.00
2023-05-24T01:47:57.934Z,862.00
2023-05-24T01:48:57.887Z,860.00
2023-05-24T01:49:57.878Z,860.00
2023-05-24T01:50:57.894Z,861.00
2023-05-24T01:51:57.904Z,862.00
2023-05-24T01:52:57.854Z,861.00
2023-05-24T01:53:57.844Z,858.00
2023-05-24T01:54:57.849Z,858.00
2023-05-24T01:55:57.837Z,856.00
2023-05-24T01:56:57.826Z,855.00
2023-05-24T01:57:57.812Z,855.00
2023-05-24T01:58:57.811Z,857.00
2023-05-24T01:59:57.802Z,859.00
2023-05-24T02:00:57.870Z,861.00
2023-05-24T02:01:57.843Z,862.00
2023-05-24T02:02:57.920Z,863.00
2023-05-24T02:03:57.775Z,864.00
2023-05-24T02:04:57.777Z,864.00
2023-05-24T02:05:57.774Z,862.00
2023-05-24T02:06:57.772Z,859.00
2023-05-24T02:07:57.761Z,858.00
2023-05-24T02:08:57.781Z,858.00
2023-05-24T02:09:57.736Z,858.00
2023-05-24T02:10:57.736Z,857.00
2023-05-24T02:11:57.725Z,858.00
2023-05-24T02:12:57.717Z,859.00
2023-05-24T02:13:57.723Z,860.00
2023-05-24T02:14:57.713Z,860.00
2023-05-24T02:15:57.702Z,858.00
2023-05-24T02:16:57.812Z,859.00
2023-05-24T02:17:57.789Z,861.00
2023-05-24T02:18:57.678Z,862.00
2023-05-24T02:19:57.740Z,860.00
2023-05-24T02:20:57.700Z,860.00
2023-05-24T02:21:57.660Z,859.00
2023-05-24T02:22:57.662Z,857.00
2023-05-24T02:23:57.643Z,856.00
2023-05-24T02:24:57.632Z,853.00
2023-05-24T02:25:57.638Z,851.00
2023-05-24T02:26:57.641Z,850.00
2023-05-24T02:27:57.621Z,850.00
2023-05-24T02:28:57.628Z,847.00
2023-05-24T02:29:57.625Z,847.00
2023-05-24T02:30:57.622Z,845.00
2023-05-24T02:31:57.590Z,843.00
2023-05-24T02:32:57.632Z,845.00
2023-05-24T02:33:57.603Z,845.00
2023-05-24T02:34:57.612Z,842.00
2023-05-24T02:35:57.587Z,842.00
2023-05-24T02:36:57.575Z,840.00
2023-05-24T02:37:57.555Z,839.00
2023-05-24T02:38:57.551Z,838.00
2023-05-24T02:39:57.559Z,839.00
2023-05-24T02:40:57.538Z,836.00
2023-05-24T02:41:57.530Z,836.00
2023-05-24T02:42:57.531Z,836.00
2023-05-24T02:43:57.541Z,835.00
2023-05-24T02:44:57.526Z,835.00
2023-05-24T02:45:57.551Z,836.00
2023-05-24T02:46:57.506Z,834.00
2023-05-24T02:47:57.519Z,836.00
2023-05-24T02:48:57.489Z,833.00
2023-05-24T02:49:57.478Z,834.00
2023-05-24T02:50:57.501Z,835.00
2023-05-24T02:51:57.476Z,836.00
2023-05-24T02:52:57.464Z,837.00
2023-05-24T02:53:57.447Z,836.00
2023-05-24T02:54:57.444Z,836.00
2023-05-24T02:55:57.450Z,836.00
2023-05-24T02:56:57.432Z,837.00
2023-05-24T02:57:57.422Z,840.00
2023-05-24T02:58:57.416Z,840.00
2023-05-24T02:59:57.415Z,839.00
2023-05-24T03:00:57.422Z,840.00
2023-05-24T03:01:57.427Z,839.00
2023-05-24T03:02:57.477Z,840.00
2023-05-24T03:03:57.466Z,841.00
2023-05-24T03:04:57.388Z,842.00
2023-05-24T03:05:57.377Z,842.00
2023-05-24T03:06:57.357Z,840.00
2023-05-24T03:07:57.364Z,843.00
2023-05-24T03:08:57.346Z,844.00
2023-05-24T03:09:57.349Z,845.00
2023-05-24T03:10:57.347Z,844.00
2023-05-24T03:11:57.332Z,842.00
2023-05-24T03:12:57.329Z,839.00
2023-05-24T03:13:57.327Z,837.00
2023-05-24T03:14:57.310Z,836.00
2023-05-24T03:15:57.354Z,834.00
2023-05-24T03:16:57.304Z,834.00
2023-05-24T03:17:57.344Z,833.00
2023-05-24T03:18:57.278Z,833.00
2023-05-24T03:19:57.300Z,834.00
2023-05-24T03:20:57.273Z,834.00
2023-05-24T03:21:57.267Z,832.00
2023-05-24T03:22:57.261Z,832.00
2023-05-24T03:23:57.266Z,832.00
2023-05-24T03:24:57.252Z,831.00
2023-05-24T03:25:57.258Z,831.00
2023-05-24T03:26:57.252Z,833.00
2023-05-24T03:27:57.256Z,834.00
2023-05-24T03:28:57.230Z,834.00
2023-05-24T03:29:57.222Z,836.00
2023-05-24T03:30:57.229Z,835.00
2023-05-24T03:31:57.318Z,833.00
2023-05-24T03:32:57.255Z,832.00
2023-05-24T03:33:57.200Z,830.00
2023-05-24T03:34:57.228Z,829.00
2023-05-24T03:35:57.194Z,828.00
2023-05-24T03:36:57.192Z,828.00
2023-05-24T03:37:57.212Z,825.00
2023-05-24T03:38:57.168Z,825.00
2023-05-24T03:39:57.157Z,823.00
2023-05-24T03:40:57.150Z,821.00
2023-05-24T03:41:57.151Z,820.00
2023-05-24T03:42:57.135Z,820.00
2023-05-24T03:43:57.128Z,820.00
2023-05-24T03:44:57.113Z,820.00
2023-05-24T03:45:57.170Z,821.00
2023-05-24T03:46:57.100Z,819.00
2023-05-24T03:47:57.136Z,818.00
2023-05-24T03:48:57.102Z,819.00
2023-05-24T03:49:57.095Z,820.00
2023-05-24T03:50:57.088Z,820.00
2023-05-24T03:51:57.071Z,821.00
2023-05-24T03:52:57.074Z,824.00
2023-05-24T03:53:57.057Z,822.00
2023-05-24T03:54:57.061Z,824.00
2023-05-24T03:55:57.036Z,824.00
2023-05-24T03:56:57.043Z,825.00
2023-05-24T03:57:57.036Z,824.00
2023-05-24T03:58:57.058Z,825.00
2023-05-24T03:59:57.011Z,824.00
2023-05-24T04:00:57.016Z,825.00
2023-05-24T04:01:57.065Z,826.00
2023-05-24T04:02:57.025Z,825.00
2023-05-24T04:03:57.034Z,824.00
2023-05-24T04:04:56.981Z,823.00
2023-05-24T04:05:56.971Z,822.00
2023-05-24T04:06:56.987Z,820.00
2023-05-24T04:07:56.970Z,819.00
2023-05-24T04:08:56.949Z,818.00
2023-05-24T04:09:56.941Z,818.00
2023-05-24T04:10:56.940Z,819.00
2023-05-24T04:11:56.957Z,818.00
2023-05-24T04:12:56.951Z,818.00
2023-05-24T04:13:56.922Z,818.00
2023-05-24T04:14:56.917Z,817.00
2023-05-24T04:15:56.907Z,815.00
2023-05-24T04:16:56.967Z,812.00
2023-05-24T04:17:57.000Z,813.00
2023-05-24T04:18:56.936Z,813.00
2023-05-24T04:19:56.918Z,813.00
2023-05-24T04:20:56.879Z,812.00
2023-05-24T04:21:56.870Z,813.00
2023-05-24T04:22:56.845Z,813.00
2023-05-24T04:23:56.844Z,814.00
2023-05-24T04:24:56.922Z,814.00
2023-05-24T04:25:56.849Z,814.00
2023-05-24T04:26:56.832Z,814.00
2023-05-24T04:27:56.817Z,816.00
2023-05-24T04:28:56.828Z,813.00
2023-05-24T04:29:56.808Z,815.00
2023-05-24T04:30:56.920Z,814.00
2023-05-24T04:31:56.802Z,815.00
2023-05-24T04:32:56.812Z,813.00
2023-05-24T04:33:56.789Z,813.00
2023-05-24T04:34:56.798Z,816.00
2023-05-24T04:35:56.765Z,814.00
2023-05-24T04:36:56.774Z,812.00
2023-05-24T04:37:56.752Z,809.00
2023-05-24T04:38:56.738Z,809.00
2023-05-24T04:39:56.732Z,810.00
2023-05-24T04:40:56.742Z,809.00
2023-05-24T04:41:56.726Z,808.00
2023-05-24T04:42:56.725Z,810.00
2023-05-24T04:43:56.721Z,811.00
2023-05-24T04:44:56.705Z,811.00
2023-05-24T04:45:56.689Z,812.00
2023-05-24T04:46:56.713Z,817.00
2023-05-24T04:47:56.756Z,820.00
2023-05-24T04:48:56.676Z,822.00
2023-05-24T04:49:56.685Z,819.00
2023-05-24T04:50:56.658Z,817.00
2023-05-24T04:51:56.662Z,815.00
2023-05-24T04:52:56.648Z,813.00
2023-05-24T04:53:56.659Z,812.00
2023-05-24T04:54:56.628Z,813.00
2023-05-24T04:55:56.622Z,812.00
2023-05-24T04:56:56.647Z,811.00
2023-05-24T04:57:56.614Z,812.00
2023-05-24T04:58:56.622Z,812.00
2023-05-24T04:59:56.629Z,810.00
2023-05-24T05:00:56.601Z,808.00
2023-05-24T05:01:56.626Z,804.00
2023-05-24T05:02:56.633Z,804.00
2023-05-24T05:03:56.619Z,802.00
2023-05-24T05:04:56.574Z,801.00
2023-05-24T05:05:56.586Z,802.00
2023-05-24T05:06:56.569Z,799.00
2023-05-24T05:07:56.559Z,801.00
2023-05-24T05:08:56.550Z,802.00
2023-05-24T05:09:56.565Z,800.00
2023-05-24T05:10:56.539Z,801.00
2023-05-24T05:11:56.536Z,801.00
2023-05-24T05:12:56.543Z,800.00
2023-05-24T05:13:56.531Z,800.00
2023-05-24T05:14:56.520Z,802.00
2023-05-24T05:15:56.505Z,800.00
2023-05-24T05:16:56.631Z,801.00
2023-05-24T05:17:56.494Z,799.00
2023-05-24T05:18:56.481Z,801.00
2023-05-24T05:19:56.497Z,802.00
2023-05-24T05:20:56.475Z,802.00
2023-05-24T05:21:56.470Z,800.00
2023-05-24T05:22:56.462Z,799.00
2023-05-24T05:23:56.453Z,799.00
2023-05-24T05:24:56.461Z,801.00
2023-05-24T05:25:56.448Z,801.00
2023-05-24T05:26:56.464Z,801.00
2023-05-24T05:27:56.435Z,801.00
2023-05-24T05:28:56.433Z,800.00
2023-05-24T05:29:56.436Z,801.00
2023-05-24T05:30:56.440Z,802.00
2023-05-24T05:31:56.488Z,804.00
2023-05-24T05:32:56.665Z,802.00
2023-05-24T05:33:56.492Z,803.00
2023-05-24T05:34:56.482Z,804.00
2023-05-24T05:35:56.796Z,810.00
2023-05-24T05:36:56.536Z,817.00
2023-05-24T05:37:56.504Z,830.00
2023-05-24T05:38:56.554Z,880.00
2023-05-24T05:39:56.523Z,904.00
2023-05-24T05:40:56.523Z,913.00
2023-05-24T05:41:56.516Z,897.00
2023-05-24T05:42:56.554Z,891.00
2023-05-24T05:43:56.510Z,796.00
2023-05-24T05:44:56.490Z,779.00
2023-05-24T05:45:56.492Z,760.00
2023-05-24T05:46:56.498Z,754.00
2023-05-24T05:47:56.555Z,759.00
2023-05-24T05:48:56.505Z,758.00
2023-05-24T05:49:56.499Z,756.00
2023-05-24T05:50:56.522Z,753.00
2023-05-24T05:51:56.516Z,749.00
2023-05-24T05:52:56.510Z,745.00
2023-05-24T05:53:56.590Z,741.00
2023-05-24T05:54:56.584Z,733.00
2023-05-24T05:55:56.612Z,726.00
2023-05-24T05:56:56.525Z,722.00
2023-05-24T05:57:56.715Z,717.00
2023-05-24T05:58:56.604Z,713.00
2023-05-24T05:59:56.531Z,709.00
2023-05-24T06:00:56.531Z,705.00
2023-05-24T06:01:56.524Z,700.00
2023-05-24T06:02:56.585Z,698.00
2023-05-24T06:03:56.708Z,694.00
2023-05-24T06:04:56.630Z,694.00
2023-05-24T06:05:56.555Z,698.00
2023-05-24T06:06:56.567Z,698.00
2023-05-24T06:07:56.589Z,697.00
2023-05-24T06:08:56.602Z,694.00
2023-05-24T06:09:56.666Z,694.00
2023-05-24T06:10:56.634Z,692.00
2023-05-24T06:11:56.641Z,687.00
2023-05-24T06:12:56.663Z,684.00
2023-05-24T06:13:56.685Z,677.00
2023-05-24T06:14:56.652Z,672.00
2023-05-24T06:15:56.685Z,670.00
2023-05-24T06:16:58.028Z,666.00
2023-05-24T06:17:56.698Z,663.00
2023-05-24T06:19:05.207Z,658.00
2023-05-24T06:19:57.677Z,656.00
2023-05-24T06:20:56.694Z,652.00
2023-05-24T06:21:56.649Z,650.00
2023-05-24T06:22:56.623Z,646.00
2023-05-24T06:23:56.726Z,645.00
2023-05-24T06:24:56.653Z,643.00
2023-05-24T06:25:57.319Z,639.00
2023-05-24T06:26:56.631Z,635.00
2023-05-24T06:27:56.613Z,633.00
2023-05-24T06:28:56.745Z,631.00
2023-05-24T06:29:56.695Z,630.00
2023-05-24T06:30:56.663Z,627.00
2023-05-24T06:31:56.636Z,624.00
2023-05-24T06:32:56.624Z,622.00
2023-05-24T06:34:56.568Z,616.00
2023-05-24T06:35:56.577Z,610.00
2023-05-24T06:36:56.613Z,622.00
2023-05-24T06:37:56.547Z,753.00
2023-05-24T06:38:56.554Z,826.00
2023-05-24T06:39:56.593Z,861.00
2023-05-24T06:40:56.522Z,910.00
2023-05-24T06:41:56.515Z,929.00
2023-05-24T06:42:56.507Z,958.00
2023-05-24T06:43:56.515Z,1004.00
2023-05-24T06:44:57.302Z,1018.00
2023-05-24T06:45:56.824Z,1030.00
2023-05-24T06:46:56.599Z,1038.00
2023-05-24T06:47:56.559Z,1047.00
2023-05-24T06:48:56.625Z,1058.00
2023-05-24T06:49:56.468Z,1067.00
2023-05-24T06:50:56.476Z,1075.00
2023-05-24T06:51:56.861Z,1080.00
2023-05-24T06:52:56.447Z,1083.00
2023-05-24T06:53:56.434Z,1088.00
2023-05-24T06:54:56.493Z,1095.00
2023-05-24T06:55:57.684Z,1088.00
2023-05-24T06:56:56.445Z,1088.00
2023-05-24T06:57:56.435Z,1081.00
2023-05-24T06:58:56.410Z,1078.00
2023-05-24T06:59:56.422Z,1071.00
2023-05-24T07:00:56.472Z,1064.00
2023-05-24T07:01:56.417Z,1057.00
2023-05-24T07:02:56.439Z,995.00
2023-05-24T07:03:56.391Z,953.00
2023-05-24T07:04:56.479Z,954.00
2023-05-24T07:05:56.374Z,940.00
2023-05-24T07:06:56.349Z,890.00
2023-05-24T07:07:56.350Z,919.00
2023-05-24T07:08:56.388Z,936.00
2023-05-24T07:09:56.351Z,944.00
2023-05-24T07:10:56.350Z,950.00
2023-05-24T07:11:56.368Z,959.00
2023-05-24T07:12:56.316Z,976.00
2023-05-24T07:13:56.320Z,983.00
2023-05-24T07:14:56.299Z,988.00
2023-05-24T07:15:56.310Z,1007.00
2023-05-24T07:16:56.350Z,1020.00
2023-05-24T07:17:56.436Z,1027.00
2023-05-24T07:18:56.418Z,1027.00
2023-05-24T07:19:56.396Z,1040.00
2023-05-24T07:20:56.425Z,1045.00
2023-05-24T07:21:56.433Z,1049.00
2023-05-24T07:22:56.507Z,1063.00
2023-05-24T07:23:56.486Z,1068.00
2023-05-24T07:24:56.522Z,1071.00
2023-05-24T07:25:56.512Z,1061.00
2023-05-24T07:26:56.544Z,1056.00
2023-05-24T07:27:56.519Z,1056.00
2023-05-24T07:28:56.557Z,980.00
2023-05-24T07:29:56.558Z,1013.00
2023-05-24T07:30:56.580Z,1020.00
2023-05-24T07:31:56.780Z,1017.00
2023-05-24T07:32:56.938Z,1042.00
2023-05-24T07:33:56.639Z,1100.00
2023-05-24T07:34:56.673Z,1092.00
2023-05-24T07:35:56.630Z,1097.00
2023-05-24T07:36:56.813Z,1204.00
2023-05-24T07:37:56.629Z,1115.00
2023-05-24T07:38:56.653Z,1106.00
2023-05-24T07:39:56.614Z,1016.00
2023-05-24T07:40:56.666Z,1031.00
2023-05-24T07:41:56.669Z,1039.00
2023-05-24T07:42:56.695Z,1006.00
2023-05-24T07:43:56.679Z,1113.00
2023-05-24T07:44:56.692Z,1146.00
2023-05-24T07:45:56.742Z,1165.00
2023-05-24T07:46:56.841Z,1188.00
2023-05-24T07:47:57.048Z,1209.00
2023-05-24T07:48:56.837Z,1221.00
2023-05-24T07:49:56.727Z,1245.00
2023-05-24T07:50:56.722Z,1263.00
2023-05-24T07:51:56.759Z,1271.00
2023-05-24T07:52:56.810Z,1297.00
2023-05-24T07:53:56.901Z,1309.00
2023-05-24T07:54:56.936Z,1311.00
2023-05-24T07:55:56.973Z,1317.00
2023-05-24T07:56:57.027Z,1325.00
2023-05-24T07:57:57.090Z,1333.00
2023-05-24T07:58:57.110Z,1342.00
2023-05-24T07:59:57.144Z,1357.00
2023-05-24T08:00:57.179Z,1366.00
2023-05-24T08:01:57.253Z,1371.00
2023-05-24T08:02:57.382Z,1383.00
2023-05-24T08:03:57.503Z,1398.00
2023-05-24T08:04:57.391Z,1430.00
2023-05-24T08:05:57.462Z,1438.00
2023-05-24T08:06:57.554Z,1433.00
2023-05-24T08:07:57.602Z,1422.00
2023-05-24T08:08:57.669Z,1438.00
2023-05-24T08:09:57.704Z,1456.00
2023-05-24T08:10:57.783Z,1466.00
2023-05-24T08:11:57.825Z,1468.00
2023-05-24T08:12:57.951Z,1470.00
2023-05-24T08:13:57.959Z,1467.00
2023-05-24T08:14:58.017Z,1473.00
2023-05-24T08:15:58.098Z,1469.00
2023-05-24T08:16:58.157Z,1456.00
2023-05-24T08:17:58.297Z,1445.00
2023-05-24T08:18:58.308Z,1441.00
2023-05-24T08:19:58.542Z,1394.00
2023-05-24T08:20:58.417Z,1397.00
2023-05-24T08:21:58.501Z,1419.00
2023-05-24T08:22:58.536Z,1421.00
2023-05-24T08:23:58.662Z,1413.00
2023-05-24T08:24:58.682Z,1423.00
2023-05-24T08:25:58.823Z,1421.00
2023-05-24T08:26:58.771Z,1424.00
2023-05-24T08:27:58.844Z,1432.00
2023-05-24T08:28:58.847Z,1433.00
2023-05-24T08:29:58.889Z,1428.00
2023-05-24T08:30:58.928Z,1422.00
2023-05-24T08:31:59.443Z,1415.00
2023-05-24T08:32:59.109Z,1414.00
2023-05-24T08:33:59.087Z,1410.00
2023-05-24T08:35:10.629Z,1406.00
2023-05-24T08:36:00.260Z,1392.00
2023-05-24T08:36:59.076Z,1376.00
2023-05-24T08:37:59.065Z,1296.00
2023-05-24T08:38:59.058Z,1321.00
2023-05-24T08:39:59.053Z,1310.00
2023-05-24T08:40:59.056Z,1295.00
2023-05-24T08:42:08.808Z,1287.00
2023-05-24T08:43:00.061Z,1283.00
2023-05-24T08:43:59.028Z,1281.00
2023-05-24T08:44:59.026Z,1337.00
2023-05-24T08:45:59.366Z,1359.00
2023-05-24T08:46:59.369Z,1459.00
2023-05-24T08:47:59.083Z,1502.00
2023-05-24T08:48:59.069Z,1513.00
2023-05-24T08:49:59.007Z,1527.00
2023-05-24T08:50:58.998Z,1570.00
2023-05-24T08:51:59.371Z,1615.00
2023-05-24T08:52:58.997Z,1633.00
2023-05-24T08:53:58.997Z,1649.00
2023-05-24T08:54:58.978Z,1669.00
2023-05-24T08:55:59.366Z,1685.00
2023-05-24T08:56:58.956Z,1698.00
2023-05-24T08:57:59.075Z,1710.00
2023-05-24T08:58:59.074Z,1746.00
2023-05-24T08:59:59.178Z,1819.00
2023-05-24T09:00:59.230Z,1814.00
2023-05-24T09:01:59.257Z,1832.00
2023-05-24T09:02:59.341Z,1867.00
2023-05-24T09:03:59.404Z,1899.00
2023-05-24T09:04:59.460Z,1910.00
2023-05-24T09:05:59.532Z,1950.00
2023-05-24T09:06:59.497Z,1968.00
2023-05-24T09:07:59.575Z,1986.00
2023-05-24T09:08:59.653Z,2003.00
2023-05-24T09:09:59.665Z,2015.00
2023-05-24T09:11:00.023Z,2059.00
2023-05-24T09:11:59.741Z,2024.00
2023-05-24T09:12:59.817Z,1993.00
2023-05-24T09:13:59.828Z,2081.00
2023-05-24T09:14:59.857Z,2053.00
2023-05-24T09:15:59.992Z,2064.00
2023-05-24T09:16:59.950Z,2093.00
2023-05-24T09:18:00.042Z,2111.00
2023-05-24T09:19:00.027Z,2119.00
2023-05-24T09:20:00.189Z,2129.00
2023-05-24T09:21:00.133Z,2137.00
2023-05-24T09:22:00.178Z,2136.00
2023-05-24T09:23:00.179Z,2143.00
2023-05-24T09:24:00.316Z,2147.00
2023-05-24T09:25:00.272Z,2138.00
2023-05-24T09:26:00.311Z,2123.00
2023-05-24T09:27:00.381Z,2112.00
2023-05-24T09:28:00.354Z,2104.00
2023-05-24T09:29:00.387Z,2095.00
2023-05-24T09:30:00.446Z,1949.00
2023-05-24T09:31:00.547Z,1986.00
2023-05-24T09:32:00.610Z,1932.00
2023-05-24T09:33:00.779Z,1942.00
2023-05-24T09:34:00.605Z,1661.00
2023-05-24T09:35:00.634Z,1741.00
2023-05-24T09:36:00.641Z,1595.00
2023-05-24T09:37:00.875Z,1673.00
2023-05-24T09:38:00.848Z,1480.00
2023-05-24T09:39:00.776Z,1496.00
2023-05-24T09:40:00.927Z,1514.00
2023-05-24T09:41:00.844Z,1470.00
2023-05-24T09:42:01.394Z,1464.00
2023-05-24T09:43:00.976Z,1524.00
2023-05-24T09:44:00.963Z,1544.00
2023-05-24T09:45:01.000Z,1531.00
2023-05-24T09:46:01.039Z,1539.00
2023-05-24T09:47:01.138Z,1462.00
2023-05-24T09:48:01.181Z,1338.00
2023-05-24T09:49:01.187Z,1248.00
2023-05-24T09:50:01.276Z,1184.00
2023-05-24T09:51:01.284Z,1319.00
2023-05-24T09:52:01.994Z,1248.00
2023-05-24T09:53:01.391Z,1244.00
2023-05-24T09:54:01.446Z,1049.00
2023-05-24T09:55:01.505Z,1029.00
2023-05-24T09:56:01.833Z,996.00
2023-05-24T09:57:03.522Z,903.00
2023-05-24T09:58:01.599Z,895.00
2023-05-24T09:59:01.632Z,829.00
2023-05-24T10:00:01.654Z,846.00
2023-05-24T10:01:01.614Z,822.00
2023-05-24T10:02:01.569Z,808.00
2023-05-24T10:03:01.676Z,803.00
2023-05-24T10:04:01.641Z,791.00
2023-05-24T10:05:01.700Z,746.00
2023-05-24T10:06:01.544Z,734.00
2023-05-24T10:07:01.532Z,741.00
2023-05-24T10:08:01.574Z,733.00
2023-05-24T10:09:01.540Z,733.00
2023-05-24T10:10:01.640Z,722.00
2023-05-24T10:11:01.551Z,719.00
2023-05-24T10:12:01.610Z,722.00
2023-05-24T10:13:01.544Z,714.00
2023-05-24T10:14:01.511Z,712.00
2023-05-24T10:15:01.530Z,704.00
2023-05-24T10:16:01.485Z,697.00
2023-05-24T10:17:01.549Z,691.00
2023-05-24T10:18:01.628Z,694.00
2023-05-24T10:19:01.468Z,685.00
2023-05-24T10:20:01.494Z,686.00
2023-05-24T10:21:01.647Z,691.00
2023-05-24T10:22:01.458Z,682.00
2023-05-24T10:23:01.558Z,672.00
2023-05-24T10:24:01.449Z,685.00
2023-05-24T10:25:01.425Z,685.00
2023-05-24T10:26:01.417Z,686.00
2023-05-24T10:27:01.400Z,697.00
2023-05-24T10:28:01.416Z,722.00
2023-05-24T10:29:01.386Z,703.00
2023-05-24T10:30:01.382Z,782.00
2023-05-24T10:31:01.527Z,789.00
2023-05-24T10:32:01.392Z,785.00
2023-05-24T10:33:01.451Z,795.00
2023-05-24T10:34:07.045Z,798.00
2023-05-24T10:35:02.377Z,812.00
2023-05-24T10:36:01.351Z,822.00
2023-05-24T10:37:01.399Z,873.00
2023-05-24T10:38:01.343Z,890.00
2023-05-24T10:39:01.332Z,912.00
2023-05-24T10:40:01.358Z,982.00
2023-05-24T10:41:01.380Z,1002.00
2023-05-24T10:42:01.341Z,1018.00
2023-05-24T10:43:01.322Z,1034.00
2023-05-24T10:44:09.673Z,1100.00
2023-05-24T10:45:02.337Z,1110.00
2023-05-24T10:46:01.368Z,1133.00
2023-05-24T10:47:01.293Z,1157.00
2023-05-24T10:48:01.264Z,1175.00
2023-05-24T10:49:01.254Z,1190.00
2023-05-24T10:50:01.317Z,1203.00
2023-05-24T10:51:01.282Z,1216.00
2023-05-24T10:52:01.243Z,1249.00
2023-05-24T10:53:01.293Z,1270.00
2023-05-24T10:54:01.390Z,1286.00
2023-05-24T10:55:04.251Z,1300.00
2023-05-24T10:56:01.436Z,1321.00
2023-05-24T10:57:01.406Z,1341.00
2023-05-24T10:58:01.897Z,1361.00
2023-05-24T10:59:01.383Z,1394.00
2023-05-24T11:00:01.393Z,1416.00
2023-05-24T11:01:01.401Z,1430.00
2023-05-24T11:02:01.407Z,1447.00
2023-05-24T11:03:01.486Z,1468.00
2023-05-24T11:04:01.391Z,1491.00
2023-05-24T11:05:01.365Z,1520.00
2023-05-24T11:06:01.430Z,1538.00
2023-05-24T11:07:01.348Z,1551.00
2023-05-24T11:08:01.330Z,1569.00
2023-05-24T11:09:01.306Z,1596.00
2023-05-24T11:10:01.366Z,1605.00
2023-05-24T11:11:11.515Z,1623.00
2023-05-24T11:12:02.377Z,1684.00
2023-05-24T11:13:01.324Z,1689.00
2023-05-24T11:14:01.337Z,1692.00
2023-05-24T11:15:01.313Z,1703.00
2023-05-24T11:16:01.440Z,1718.00
2023-05-24T11:17:01.298Z,1739.00
2023-05-24T11:18:01.375Z,1772.00
2023-05-24T11:19:01.266Z,1791.00
2023-05-24T11:20:01.440Z,1789.00
2023-05-24T11:21:01.480Z,1787.00
2023-05-24T11:41:45.583Z,1716.00
2023-05-24T11:42:45.586Z,1718.00
2023-05-24T11:43:45.559Z,1718.00
2023-05-24T11:44:45.535Z,1721.00
2023-05-24T11:45:45.583Z,1718.00
2023-05-24T11:54:39.306Z,1676.00
2023-05-24T11:55:39.332Z,1675.00
2023-05-24T11:56:39.391Z,1677.00
2023-05-24T11:57:39.292Z,1677.00
2023-05-24T11:58:39.280Z,1675.00
2023-05-24T11:59:39.291Z,1675.00
2023-05-24T12:00:39.338Z,1676.00
2023-05-24T12:01:39.282Z,1673.00
2023-05-24T12:02:39.416Z,1674.00
2023-05-24T12:03:39.401Z,1676.00
2023-05-24T12:04:39.296Z,1677.00
2023-05-24T12:05:39.249Z,1675.00
2023-05-24T12:06:39.265Z,1671.00
2023-05-24T12:07:39.234Z,1669.00
2023-05-24T12:08:39.228Z,1667.00
2023-05-24T12:09:39.220Z,1661.00
2023-05-24T12:10:39.213Z,1660.00
2023-05-24T12:11:39.209Z,1658.00
2023-05-24T12:12:45.656Z,1657.00
2023-05-24T12:13:40.204Z,1655.00
2023-05-24T12:14:39.194Z,1650.00
2023-05-24T12:15:39.216Z,1646.00
2023-05-24T12:16:39.271Z,1641.00
2023-05-24T12:17:39.270Z,1639.00
2023-05-24T12:18:45.830Z,1638.00
2023-05-24T12:19:40.170Z,1636.00
2023-05-24T12:20:39.291Z,1632.00
2023-05-24T12:21:39.151Z,1631.00
2023-05-24T12:22:39.152Z,1632.00
2023-05-24T12:23:39.137Z,1631.00
2023-05-24T12:24:39.130Z,1628.00
2023-05-24T12:25:39.174Z,1625.00
2023-05-24T12:26:39.115Z,1624.00
2023-05-24T12:27:39.115Z,1625.00
2023-05-24T12:28:39.107Z,1622.00
2023-05-24T12:29:39.119Z,1621.00
2023-05-24T12:30:39.089Z,1618.00
2023-05-24T12:31:39.141Z,1612.00
2023-05-24T12:32:39.111Z,1605.00
2023-05-24T12:33:39.074Z,1599.00
2023-05-24T12:34:39.058Z,1596.00
2023-05-24T12:35:39.058Z,1593.00
2023-05-24T12:36:39.069Z,1584.00
2023-05-24T12:37:39.049Z,1578.00
2023-05-24T12:38:39.030Z,1571.00
2023-05-24T12:39:39.025Z,1570.00
2023-05-24T12:40:39.026Z,1565.00
2023-05-24T12:41:39.021Z,1563.00
2023-05-24T12:42:38.999Z,1561.00
2023-05-24T12:43:38.994Z,1558.00
2023-05-24T12:44:39.027Z,1552.00
2023-05-24T12:45:39.058Z,1549.00
2023-05-24T12:46:39.119Z,1544.00
2023-05-24T12:47:39.101Z,1542.00
2023-05-24T12:48:39.100Z,1542.00
2023-05-24T12:49:39.144Z,1541.00
2023-05-24T12:50:39.146Z,1537.00
2023-05-24T12:51:39.226Z,1535.00
2023-05-24T12:52:39.210Z,1533.00
2023-05-24T12:53:39.225Z,1525.00
2023-05-24T12:54:39.269Z,1523.00
2023-05-24T12:55:39.296Z,1521.00
2023-05-24T12:56:39.294Z,1518.00
2023-05-24T12:57:39.333Z,1513.00
2023-05-24T12:58:39.404Z,1506.00
2023-05-24T12:59:39.393Z,1504.00
2023-05-24T13:00:39.479Z,1503.00
2023-05-24T13:01:39.551Z,1501.00
2023-05-24T13:02:40.159Z,1495.00
2023-05-24T13:03:39.527Z,1488.00
2023-05-24T13:04:39.555Z,1478.00
2023-05-24T13:05:39.689Z,1471.00
2023-05-24T13:06:39.604Z,1462.00
2023-05-24T13:07:39.685Z,1458.00